sensor_id;sensor_type;location;lat;lon;timestamp;P1;durP1;ratioP1;P2;durP2;ratioP2
64842;SDS011;51310;52.198;5.422;2024-03-22T00:01:54;45.65;;;24.13;;
64842;SDS011;51310;52.198;5.422;2024-03-22T00:04:22;46.25;;;23.52;;
64842;SDS011;51310;52.198;5.422;2024-03-22T00:06:48;44.50;;;22.80;;
64842;SDS011;51310;52.198;5.422;2024-03-22T00:09:15;47.70;;;24.42;;
64842;SDS011;51310;52.198;5.422;2024-03-22T00:11:42;51.08;;;26.40;;
64842;SDS011;51310;52.198;5.422;2024-03-22T00:14:09;47.30;;;24.30;;
64842;SDS011;51310;52.198;5.422;2024-03-22T00:16:36;41.15;;;23.85;;
64842;SDS011;51310;52.198;5.422;2024-03-22T00:19:03;52.00;;;23.88;;
64842;SDS011;51310;52.198;5.422;2024-03-22T00:21:29;52.22;;;25.20;;
64842;SDS011;51310;52.198;5.422;2024-03-22T00:23:56;51.92;;;23.67;;
64842;SDS011;51310;52.198;5.422;2024-03-22T00:26:22;51.78;;;24.15;;
64842;SDS011;51310;52.198;5.422;2024-03-22T00:28:48;46.78;;;22.48;;
64842;SDS011;51310;52.198;5.422;2024-03-22T00:31:14;53.15;;;23.33;;
64842;SDS011;51310;52.198;5.422;2024-03-22T00:33:41;46.25;;;24.05;;
64842;SDS011;51310;52.198;5.422;2024-03-22T00:36:07;48.70;;;23.90;;
64842;SDS011;51310;52.198;5.422;2024-03-22T00:38:33;46.97;;;23.25;;
64842;SDS011;51310;52.198;5.422;2024-03-22T00:40:59;46.80;;;23.98;;
64842;SDS011;51310;52.198;5.422;2024-03-22T00:43:25;49.83;;;23.20;;
64842;SDS011;51310;52.198;5.422;2024-03-22T00:45:51;52.58;;;23.63;;
64842;SDS011;51310;52.198;5.422;2024-03-22T00:48:17;47.67;;;24.23;;
64842;SDS011;51310;52.198;5.422;2024-03-22T00:50:43;53.45;;;23.48;;
64842;SDS011;51310;52.198;5.422;2024-03-22T00:53:09;48.47;;;23.05;;
64842;SDS011;51310;52.198;5.422;2024-03-22T00:55:35;50.20;;;22.27;;
64842;SDS011;51310;52.198;5.422;2024-03-22T00:58:01;54.58;;;25.08;;
64842;SDS011;51310;52.198;5.422;2024-03-22T01:00:27;53.72;;;27.08;;
64842;SDS011;51310;52.198;5.422;2024-03-22T01:02:53;49.65;;;23.20;;
64842;SDS011;51310;52.198;5.422;2024-03-22T01:05:19;54.42;;;27.13;;
64842;SDS011;51310;52.198;5.422;2024-03-22T01:07:45;54.33;;;24.35;;
64842;SDS011;51310;52.198;5.422;2024-03-22T01:10:11;51.85;;;23.40;;
64842;SDS011;51310;52.198;5.422;2024-03-22T01:12:38;54.60;;;25.55;;
64842;SDS011;51310;52.198;5.422;2024-03-22T01:15:05;55.67;;;24.77;;
64842;SDS011;51310;52.198;5.422;2024-03-22T01:17:32;53.30;;;25.60;;
64842;SDS011;51310;52.198;5.422;2024-03-22T01:19:59;56.15;;;25.67;;
64842;SDS011;51310;52.198;5.422;2024-03-22T01:22:25;56.97;;;24.63;;
64842;SDS011;51310;52.198;5.422;2024-03-22T01:24:51;55.22;;;27.17;;
64842;SDS011;51310;52.198;5.422;2024-03-22T01:27:18;53.05;;;24.35;;
64842;SDS011;51310;52.198;5.422;2024-03-22T01:29:44;48.97;;;23.83;;
64842;SDS011;51310;52.198;5.422;2024-03-22T01:32:12;56.00;;;23.73;;
64842;SDS011;51310;52.198;5.422;2024-03-22T01:34:38;57.08;;;26.77;;
64842;SDS011;51310;52.198;5.422;2024-03-22T01:37:04;53.25;;;26.92;;
64842;SDS011;51310;52.198;5.422;2024-03-22T01:39:31;50.45;;;22.85;;
64842;SDS011;51310;52.198;5.422;2024-03-22T01:41:57;57.22;;;27.30;;
64842;SDS011;51310;52.198;5.422;2024-03-22T01:44:26;57.33;;;25.30;;
64842;SDS011;51310;52.198;5.422;2024-03-22T01:46:54;59.72;;;27.05;;
64842;SDS011;51310;52.198;5.422;2024-03-22T01:49:20;52.63;;;24.80;;
64842;SDS011;51310;52.198;5.422;2024-03-22T01:51:47;60.58;;;26.40;;
64842;SDS011;51310;52.198;5.422;2024-03-22T01:54:14;55.17;;;24.40;;
64842;SDS011;51310;52.198;5.422;2024-03-22T01:56:41;54.58;;;24.63;;
64842;SDS011;51310;52.198;5.422;2024-03-22T01:59:08;47.08;;;22.25;;
64842;SDS011;51310;52.198;5.422;2024-03-22T02:01:34;44.17;;;21.42;;
64842;SDS011;51310;52.198;5.422;2024-03-22T02:04:01;60.53;;;25.35;;
64842;SDS011;51310;52.198;5.422;2024-03-22T02:06:27;54.08;;;22.60;;
64842;SDS011;51310;52.198;5.422;2024-03-22T02:08:53;52.35;;;24.33;;
64842;SDS011;51310;52.198;5.422;2024-03-22T02:11:21;54.33;;;24.05;;
64842;SDS011;51310;52.198;5.422;2024-03-22T02:13:48;51.03;;;22.33;;
64842;SDS011;51310;52.198;5.422;2024-03-22T02:16:14;59.20;;;25.33;;
64842;SDS011;51310;52.198;5.422;2024-03-22T02:18:40;51.83;;;23.17;;
64842;SDS011;51310;52.198;5.422;2024-03-22T02:21:05;48.95;;;24.42;;
64842;SDS011;51310;52.198;5.422;2024-03-22T02:23:35;54.35;;;24.98;;
64842;SDS011;51310;52.198;5.422;2024-03-22T02:26:04;69.78;;;28.55;;
64842;SDS011;51310;52.198;5.422;2024-03-22T02:28:30;66.90;;;27.50;;
64842;SDS011;51310;52.198;5.422;2024-03-22T02:30:58;59.50;;;26.33;;
64842;SDS011;51310;52.198;5.422;2024-03-22T02:33:25;60.35;;;27.83;;
64842;SDS011;51310;52.198;5.422;2024-03-22T02:35:51;58.15;;;26.98;;
64842;SDS011;51310;52.198;5.422;2024-03-22T02:38:18;55.67;;;26.30;;
64842;SDS011;51310;52.198;5.422;2024-03-22T02:40:47;62.00;;;28.50;;
64842;SDS011;51310;52.198;5.422;2024-03-22T02:43:17;56.33;;;27.13;;
64842;SDS011;51310;52.198;5.422;2024-03-22T02:45:46;68.93;;;29.05;;
64842;SDS011;51310;52.198;5.422;2024-03-22T02:48:13;65.18;;;30.77;;
64842;SDS011;51310;52.198;5.422;2024-03-22T02:50:39;78.28;;;31.77;;
64842;SDS011;51310;52.198;5.422;2024-03-22T02:53:05;72.88;;;32.92;;
64842;SDS011;51310;52.198;5.422;2024-03-22T02:55:37;72.05;;;31.90;;
64842;SDS011;51310;52.198;5.422;2024-03-22T02:58:05;64.13;;;32.25;;
64842;SDS011;51310;52.198;5.422;2024-03-22T03:00:38;75.63;;;34.00;;
64842;SDS011;51310;52.198;5.422;2024-03-22T03:03:08;65.67;;;33.13;;
64842;SDS011;51310;52.198;5.422;2024-03-22T03:05:34;81.22;;;35.42;;
64842;SDS011;51310;52.198;5.422;2024-03-22T03:08:00;77.57;;;34.35;;
64842;SDS011;51310;52.198;5.422;2024-03-22T03:10:26;77.60;;;33.50;;
64842;SDS011;51310;52.198;5.422;2024-03-22T03:12:54;81.50;;;34.50;;
64842;SDS011;51310;52.198;5.422;2024-03-22T03:15:20;80.70;;;32.95;;
64842;SDS011;51310;52.198;5.422;2024-03-22T03:17:46;80.30;;;33.00;;
64842;SDS011;51310;52.198;5.422;2024-03-22T03:20:12;74.47;;;32.85;;
64842;SDS011;51310;52.198;5.422;2024-03-22T03:22:39;66.80;;;30.50;;
64842;SDS011;51310;52.198;5.422;2024-03-22T03:25:05;65.68;;;29.75;;
64842;SDS011;51310;52.198;5.422;2024-03-22T03:27:32;72.55;;;29.65;;
64842;SDS011;51310;52.198;5.422;2024-03-22T03:29:58;72.50;;;29.80;;
64842;SDS011;51310;52.198;5.422;2024-03-22T03:32:24;72.60;;;30.58;;
64842;SDS011;51310;52.198;5.422;2024-03-22T03:34:51;72.35;;;29.80;;
64842;SDS011;51310;52.198;5.422;2024-03-22T03:37:17;70.85;;;30.13;;
64842;SDS011;51310;52.198;5.422;2024-03-22T03:39:43;64.68;;;29.15;;
64842;SDS011;51310;52.198;5.422;2024-03-22T03:42:09;65.15;;;29.27;;
64842;SDS011;51310;52.198;5.422;2024-03-22T03:44:35;63.20;;;27.42;;
64842;SDS011;51310;52.198;5.422;2024-03-22T03:47:02;77.80;;;27.90;;
64842;SDS011;51310;52.198;5.422;2024-03-22T03:49:28;62.10;;;27.80;;
64842;SDS011;51310;52.198;5.422;2024-03-22T03:51:54;59.78;;;29.55;;
64842;SDS011;51310;52.198;5.422;2024-03-22T03:54:20;55.20;;;26.05;;
64842;SDS011;51310;52.198;5.422;2024-03-22T03:56:46;66.32;;;27.85;;
64842;SDS011;51310;52.198;5.422;2024-03-22T03:59:11;58.58;;;25.23;;
64842;SDS011;51310;52.198;5.422;2024-03-22T04:01:37;60.35;;;28.08;;
64842;SDS011;51310;52.198;5.422;2024-03-22T04:04:03;62.58;;;25.98;;
64842;SDS011;51310;52.198;5.422;2024-03-22T04:06:29;50.33;;;23.75;;
64842;SDS011;51310;52.198;5.422;2024-03-22T04:08:55;63.58;;;24.48;;
64842;SDS011;51310;52.198;5.422;2024-03-22T04:11:22;56.72;;;24.85;;
64842;SDS011;51310;52.198;5.422;2024-03-22T04:13:49;58.65;;;23.30;;
64842;SDS011;51310;52.198;5.422;2024-03-22T04:16:15;63.65;;;23.48;;
64842;SDS011;51310;52.198;5.422;2024-03-22T04:18:40;54.65;;;23.35;;
64842;SDS011;51310;52.198;5.422;2024-03-22T04:21:06;49.50;;;23.25;;
64842;SDS011;51310;52.198;5.422;2024-03-22T04:23:32;58.22;;;22.70;;
64842;SDS011;51310;52.198;5.422;2024-03-22T04:25:58;55.38;;;21.35;;
64842;SDS011;51310;52.198;5.422;2024-03-22T04:28:27;53.28;;;25.13;;
64842;SDS011;51310;52.198;5.422;2024-03-22T04:31:03;56.78;;;22.48;;
64842;SDS011;51310;52.198;5.422;2024-03-22T04:33:33;53.40;;;23.52;;
64842;SDS011;51310;52.198;5.422;2024-03-22T04:36:01;50.22;;;21.55;;
64842;SDS011;51310;52.198;5.422;2024-03-22T04:38:28;51.35;;;23.73;;
64842;SDS011;51310;52.198;5.422;2024-03-22T04:40:55;51.45;;;20.27;;
64842;SDS011;51310;52.198;5.422;2024-03-22T04:43:22;56.40;;;22.45;;
64842;SDS011;51310;52.198;5.422;2024-03-22T04:45:49;44.80;;;20.10;;
64842;SDS011;51310;52.198;5.422;2024-03-22T04:48:17;44.15;;;19.02;;
64842;SDS011;51310;52.198;5.422;2024-03-22T04:50:48;59.05;;;23.08;;
64842;SDS011;51310;52.198;5.422;2024-03-22T04:53:21;44.50;;;20.60;;
64842;SDS011;51310;52.198;5.422;2024-03-22T04:55:47;48.42;;;21.38;;
64842;SDS011;51310;52.198;5.422;2024-03-22T04:58:19;45.95;;;18.83;;
64842;SDS011;51310;52.198;5.422;2024-03-22T05:00:46;50.13;;;20.65;;
64842;SDS011;51310;52.198;5.422;2024-03-22T05:03:14;52.53;;;22.85;;
64842;SDS011;51310;52.198;5.422;2024-03-22T05:05:41;48.08;;;18.95;;
64842;SDS011;51310;52.198;5.422;2024-03-22T05:08:08;38.83;;;18.38;;
64842;SDS011;51310;52.198;5.422;2024-03-22T05:10:34;42.35;;;19.63;;
64842;SDS011;51310;52.198;5.422;2024-03-22T05:13:01;45.45;;;20.05;;
64842;SDS011;51310;52.198;5.422;2024-03-22T05:15:27;49.20;;;20.77;;
64842;SDS011;51310;52.198;5.422;2024-03-22T05:17:54;44.53;;;20.45;;
64842;SDS011;51310;52.198;5.422;2024-03-22T05:20:22;43.80;;;18.92;;
64842;SDS011;51310;52.198;5.422;2024-03-22T05:22:48;46.13;;;19.50;;
64842;SDS011;51310;52.198;5.422;2024-03-22T05:25:14;45.88;;;20.48;;
64842;SDS011;51310;52.198;5.422;2024-03-22T05:27:40;49.35;;;19.80;;
64842;SDS011;51310;52.198;5.422;2024-03-22T05:30:07;39.38;;;18.98;;
64842;SDS011;51310;52.198;5.422;2024-03-22T05:32:35;48.65;;;20.52;;
64842;SDS011;51310;52.198;5.422;2024-03-22T05:35:01;49.95;;;20.33;;
64842;SDS011;51310;52.198;5.422;2024-03-22T05:37:27;53.08;;;23.02;;
64842;SDS011;51310;52.198;5.422;2024-03-22T05:39:53;48.35;;;22.42;;
64842;SDS011;51310;52.198;5.422;2024-03-22T05:42:20;58.40;;;25.10;;
64842;SDS011;51310;52.198;5.422;2024-03-22T05:44:46;53.90;;;22.02;;
64842;SDS011;51310;52.198;5.422;2024-03-22T05:47:13;50.50;;;25.17;;
64842;SDS011;51310;52.198;5.422;2024-03-22T05:49:39;56.55;;;24.65;;
64842;SDS011;51310;52.198;5.422;2024-03-22T05:52:05;60.17;;;24.67;;
64842;SDS011;51310;52.198;5.422;2024-03-22T05:54:31;60.60;;;27.92;;
64842;SDS011;51310;52.198;5.422;2024-03-22T05:56:57;59.75;;;24.52;;
64842;SDS011;51310;52.198;5.422;2024-03-22T05:59:23;67.53;;;25.13;;
64842;SDS011;51310;52.198;5.422;2024-03-22T06:01:48;55.85;;;24.27;;
64842;SDS011;51310;52.198;5.422;2024-03-22T06:04:14;54.22;;;22.83;;
64842;SDS011;51310;52.198;5.422;2024-03-22T06:06:40;49.88;;;22.77;;
64842;SDS011;51310;52.198;5.422;2024-03-22T06:09:06;50.45;;;23.55;;
64842;SDS011;51310;52.198;5.422;2024-03-22T06:11:36;46.63;;;22.40;;
64842;SDS011;51310;52.198;5.422;2024-03-22T06:14:02;49.35;;;22.88;;
64842;SDS011;51310;52.198;5.422;2024-03-22T06:16:29;53.13;;;23.33;;
64842;SDS011;51310;52.198;5.422;2024-03-22T06:18:54;55.72;;;22.20;;
64842;SDS011;51310;52.198;5.422;2024-03-22T06:21:20;61.05;;;23.73;;
64842;SDS011;51310;52.198;5.422;2024-03-22T06:23:49;48.08;;;20.38;;
64842;SDS011;51310;52.198;5.422;2024-03-22T06:26:16;50.58;;;21.92;;
64842;SDS011;51310;52.198;5.422;2024-03-22T06:28:43;51.90;;;21.38;;
64842;SDS011;51310;52.198;5.422;2024-03-22T06:31:09;41.60;;;20.42;;
64842;SDS011;51310;52.198;5.422;2024-03-22T06:33:35;45.38;;;20.77;;
64842;SDS011;51310;52.198;5.422;2024-03-22T06:36:01;47.70;;;20.65;;
64842;SDS011;51310;52.198;5.422;2024-03-22T06:38:31;45.55;;;21.67;;
64842;SDS011;51310;52.198;5.422;2024-03-22T06:40:57;45.97;;;20.73;;
64842;SDS011;51310;52.198;5.422;2024-03-22T06:43:24;49.97;;;21.88;;
64842;SDS011;51310;52.198;5.422;2024-03-22T06:45:50;52.65;;;21.80;;
64842;SDS011;51310;52.198;5.422;2024-03-22T06:48:16;46.50;;;19.67;;
64842;SDS011;51310;52.198;5.422;2024-03-22T06:50:42;47.58;;;21.15;;
64842;SDS011;51310;52.198;5.422;2024-03-22T06:53:08;55.75;;;22.15;;
64842;SDS011;51310;52.198;5.422;2024-03-22T06:55:35;47.75;;;21.48;;
64842;SDS011;51310;52.198;5.422;2024-03-22T06:58:01;51.10;;;21.50;;
64842;SDS011;51310;52.198;5.422;2024-03-22T07:00:27;43.50;;;19.38;;
64842;SDS011;51310;52.198;5.422;2024-03-22T07:02:53;37.08;;;18.27;;
64842;SDS011;51310;52.198;5.422;2024-03-22T07:05:20;49.88;;;20.92;;
64842;SDS011;51310;52.198;5.422;2024-03-22T07:07:47;42.17;;;18.60;;
64842;SDS011;51310;52.198;5.422;2024-03-22T07:10:14;48.25;;;19.77;;
64842;SDS011;51310;52.198;5.422;2024-03-22T07:12:40;40.28;;;17.60;;
64842;SDS011;51310;52.198;5.422;2024-03-22T07:15:06;37.83;;;16.35;;
64842;SDS011;51310;52.198;5.422;2024-03-22T07:17:33;37.78;;;15.85;;
64842;SDS011;51310;52.198;5.422;2024-03-22T07:19:59;29.58;;;15.00;;
64842;SDS011;51310;52.198;5.422;2024-03-22T07:22:25;31.80;;;14.07;;
64842;SDS011;51310;52.198;5.422;2024-03-22T07:24:51;37.33;;;13.80;;
64842;SDS011;51310;52.198;5.422;2024-03-22T07:27:17;24.00;;;12.93;;
64842;SDS011;51310;52.198;5.422;2024-03-22T07:29:44;35.22;;;12.20;;
64842;SDS011;51310;52.198;5.422;2024-03-22T07:32:10;26.98;;;11.82;;
64842;SDS011;51310;52.198;5.422;2024-03-22T07:34:35;30.15;;;11.07;;
64842;SDS011;51310;52.198;5.422;2024-03-22T07:37:01;38.22;;;13.18;;
64842;SDS011;51310;52.198;5.422;2024-03-22T07:39:29;29.02;;;11.95;;
64842;SDS011;51310;52.198;5.422;2024-03-22T07:41:55;32.20;;;13.88;;
64842;SDS011;51310;52.198;5.422;2024-03-22T07:44:21;31.90;;;14.50;;
64842;SDS011;51310;52.198;5.422;2024-03-22T07:46:49;36.63;;;13.60;;
64842;SDS011;51310;52.198;5.422;2024-03-22T07:49:16;30.17;;;14.82;;
64842;SDS011;51310;52.198;5.422;2024-03-22T07:51:42;22.92;;;12.20;;
64842;SDS011;51310;52.198;5.422;2024-03-22T07:54:07;34.70;;;12.77;;
64842;SDS011;51310;52.198;5.422;2024-03-22T07:56:33;28.77;;;12.27;;
64842;SDS011;51310;52.198;5.422;2024-03-22T07:58:59;27.13;;;10.77;;
64842;SDS011;51310;52.198;5.422;2024-03-22T08:01:25;31.83;;;10.98;;
64842;SDS011;51310;52.198;5.422;2024-03-22T08:03:51;23.90;;;10.93;;
64842;SDS011;51310;52.198;5.422;2024-03-22T08:06:18;27.15;;;11.80;;
64842;SDS011;51310;52.198;5.422;2024-03-22T08:08:44;30.23;;;11.38;;
64842;SDS011;51310;52.198;5.422;2024-03-22T08:11:10;32.05;;;13.82;;
64842;SDS011;51310;52.198;5.422;2024-03-22T08:13:36;25.17;;;10.68;;
64842;SDS011;51310;52.198;5.422;2024-03-22T08:16:02;24.63;;;12.57;;
64842;SDS011;51310;52.198;5.422;2024-03-22T08:18:29;27.13;;;11.52;;
64842;SDS011;51310;52.198;5.422;2024-03-22T08:20:55;26.92;;;11.50;;
64842;SDS011;51310;52.198;5.422;2024-03-22T08:23:21;30.45;;;10.70;;
64842;SDS011;51310;52.198;5.422;2024-03-22T08:25:47;42.40;;;12.20;;
64842;SDS011;51310;52.198;5.422;2024-03-22T08:28:14;24.02;;;11.07;;
64842;SDS011;51310;52.198;5.422;2024-03-22T08:30:40;26.02;;;10.77;;
64842;SDS011;51310;52.198;5.422;2024-03-22T08:33:07;22.83;;;10.60;;
64842;SDS011;51310;52.198;5.422;2024-03-22T08:35:36;33.65;;;11.40;;
64842;SDS011;51310;52.198;5.422;2024-03-22T08:38:03;22.90;;;10.38;;
64842;SDS011;51310;52.198;5.422;2024-03-22T08:40:30;30.88;;;12.40;;
64842;SDS011;51310;52.198;5.422;2024-03-22T08:42:56;25.77;;;9.95;;
64842;SDS011;51310;52.198;5.422;2024-03-22T08:45:22;28.05;;;10.30;;
64842;SDS011;51310;52.198;5.422;2024-03-22T08:47:48;22.85;;;10.43;;
64842;SDS011;51310;52.198;5.422;2024-03-22T08:50:14;27.67;;;10.30;;
64842;SDS011;51310;52.198;5.422;2024-03-22T08:52:40;32.85;;;11.20;;
64842;SDS011;51310;52.198;5.422;2024-03-22T08:55:06;26.17;;;10.32;;
64842;SDS011;51310;52.198;5.422;2024-03-22T08:57:32;21.90;;;9.63;;
64842;SDS011;51310;52.198;5.422;2024-03-22T08:59:58;19.10;;;10.88;;
64842;SDS011;51310;52.198;5.422;2024-03-22T09:02:24;32.00;;;11.07;;
64842;SDS011;51310;52.198;5.422;2024-03-22T09:04:51;27.65;;;11.45;;
64842;SDS011;51310;52.198;5.422;2024-03-22T09:07:18;25.67;;;10.15;;
64842;SDS011;51310;52.198;5.422;2024-03-22T09:09:44;26.77;;;10.30;;
64842;SDS011;51310;52.198;5.422;2024-03-22T09:12:10;29.95;;;11.90;;
64842;SDS011;51310;52.198;5.422;2024-03-22T09:14:35;23.05;;;10.55;;
64842;SDS011;51310;52.198;5.422;2024-03-22T09:17:01;21.58;;;10.45;;
64842;SDS011;51310;52.198;5.422;2024-03-22T09:19:27;27.00;;;11.02;;
64842;SDS011;51310;52.198;5.422;2024-03-22T09:21:53;34.97;;;12.00;;
64842;SDS011;51310;52.198;5.422;2024-03-22T09:24:19;24.08;;;11.35;;
64842;SDS011;51310;52.198;5.422;2024-03-22T09:26:45;23.58;;;10.98;;
64842;SDS011;51310;52.198;5.422;2024-03-22T09:29:13;24.50;;;11.77;;
64842;SDS011;51310;52.198;5.422;2024-03-22T09:31:39;21.50;;;10.18;;
64842;SDS011;51310;52.198;5.422;2024-03-22T09:34:05;24.08;;;11.35;;
64842;SDS011;51310;52.198;5.422;2024-03-22T09:36:31;21.48;;;10.43;;
64842;SDS011;51310;52.198;5.422;2024-03-22T09:39:00;22.27;;;10.30;;
64842;SDS011;51310;52.198;5.422;2024-03-22T09:41:27;20.38;;;9.90;;
64842;SDS011;51310;52.198;5.422;2024-03-22T09:43:57;20.63;;;9.50;;
64842;SDS011;51310;52.198;5.422;2024-03-22T09:46:27;19.65;;;9.38;;
64842;SDS011;51310;52.198;5.422;2024-03-22T09:48:54;17.48;;;8.93;;
64842;SDS011;51310;52.198;5.422;2024-03-22T09:51:20;24.42;;;11.23;;
64842;SDS011;51310;52.198;5.422;2024-03-22T09:53:50;27.13;;;10.20;;
64842;SDS011;51310;52.198;5.422;2024-03-22T09:56:20;20.02;;;10.07;;
64842;SDS011;51310;52.198;5.422;2024-03-22T09:58:47;22.00;;;9.52;;
64842;SDS011;51310;52.198;5.422;2024-03-22T10:01:14;17.30;;;9.00;;
64842;SDS011;51310;52.198;5.422;2024-03-22T10:03:42;21.60;;;9.70;;
64842;SDS011;51310;52.198;5.422;2024-03-22T10:06:09;20.75;;;9.82;;
64842;SDS011;51310;52.198;5.422;2024-03-22T10:08:34;23.33;;;9.90;;
64842;SDS011;51310;52.198;5.422;2024-03-22T10:11:03;16.52;;;9.25;;
64842;SDS011;51310;52.198;5.422;2024-03-22T10:13:29;22.02;;;9.95;;
64842;SDS011;51310;52.198;5.422;2024-03-22T10:15:56;17.30;;;8.82;;
64842;SDS011;51310;52.198;5.422;2024-03-22T10:18:22;21.00;;;9.88;;
64842;SDS011;51310;52.198;5.422;2024-03-22T10:20:58;19.30;;;9.23;;
64842;SDS011;51310;52.198;5.422;2024-03-22T10:23:30;17.17;;;9.43;;
64842;SDS011;51310;52.198;5.422;2024-03-22T10:25:57;17.42;;;8.80;;
64842;SDS011;51310;52.198;5.422;2024-03-22T10:28:26;19.63;;;9.40;;
64842;SDS011;51310;52.198;5.422;2024-03-22T10:30:53;14.63;;;8.77;;
64842;SDS011;51310;52.198;5.422;2024-03-22T10:33:20;17.95;;;9.50;;
64842;SDS011;51310;52.198;5.422;2024-03-22T10:35:51;18.38;;;9.60;;
64842;SDS011;51310;52.198;5.422;2024-03-22T10:38:19;18.17;;;9.40;;
64842;SDS011;51310;52.198;5.422;2024-03-22T10:40:47;20.02;;;9.55;;
64842;SDS011;51310;52.198;5.422;2024-03-22T10:43:14;13.95;;;7.68;;
64842;SDS011;51310;52.198;5.422;2024-03-22T10:45:41;22.58;;;9.85;;
64842;SDS011;51310;52.198;5.422;2024-03-22T10:48:11;16.50;;;8.63;;
64842;SDS011;51310;52.198;5.422;2024-03-22T10:50:40;17.83;;;8.57;;
64842;SDS011;51310;52.198;5.422;2024-03-22T10:53:07;13.82;;;8.35;;
64842;SDS011;51310;52.198;5.422;2024-03-22T10:55:45;19.30;;;9.35;;
64842;SDS011;51310;52.198;5.422;2024-03-22T10:58:15;13.38;;;8.15;;
64842;SDS011;51310;52.198;5.422;2024-03-22T11:00:53;26.02;;;9.10;;
64842;SDS011;51310;52.198;5.422;2024-03-22T11:03:21;13.93;;;7.82;;
64842;SDS011;51310;52.198;5.422;2024-03-22T11:05:55;17.83;;;9.82;;
64842;SDS011;51310;52.198;5.422;2024-03-22T11:08:23;19.83;;;8.27;;
64842;SDS011;51310;52.198;5.422;2024-03-22T11:10:54;17.58;;;8.80;;
64842;SDS011;51310;52.198;5.422;2024-03-22T11:13:22;21.45;;;8.57;;
64842;SDS011;51310;52.198;5.422;2024-03-22T11:15:51;22.00;;;8.63;;
64842;SDS011;51310;52.198;5.422;2024-03-22T11:18:17;12.60;;;7.60;;
64842;SDS011;51310;52.198;5.422;2024-03-22T11:20:43;16.45;;;7.97;;
64842;SDS011;51310;52.198;5.422;2024-03-22T11:23:10;14.95;;;7.75;;
64842;SDS011;51310;52.198;5.422;2024-03-22T11:25:36;16.25;;;8.50;;
64842;SDS011;51310;52.198;5.422;2024-03-22T11:28:02;14.07;;;8.18;;
64842;SDS011;51310;52.198;5.422;2024-03-22T11:30:29;17.50;;;8.57;;
64842;SDS011;51310;52.198;5.422;2024-03-22T11:33:02;16.45;;;7.43;;
64842;SDS011;51310;52.198;5.422;2024-03-22T11:35:30;13.05;;;8.25;;
64842;SDS011;51310;52.198;5.422;2024-03-22T11:37:56;14.77;;;7.72;;
64842;SDS011;51310;52.198;5.422;2024-03-22T11:40:23;12.73;;;7.05;;
64842;SDS011;51310;52.198;5.422;2024-03-22T11:42:52;12.95;;;6.93;;
64842;SDS011;51310;52.198;5.422;2024-03-22T11:45:21;10.57;;;5.78;;
64842;SDS011;51310;52.198;5.422;2024-03-22T11:47:49;12.52;;;5.95;;
64842;SDS011;51310;52.198;5.422;2024-03-22T11:50:15;11.27;;;6.55;;
64842;SDS011;51310;52.198;5.422;2024-03-22T11:52:42;10.90;;;6.50;;
64842;SDS011;51310;52.198;5.422;2024-03-22T11:55:12;11.43;;;5.85;;
64842;SDS011;51310;52.198;5.422;2024-03-22T11:57:39;8.90;;;5.72;;
64842;SDS011;51310;52.198;5.422;2024-03-22T12:00:06;11.20;;;6.03;;
64842;SDS011;51310;52.198;5.422;2024-03-22T12:02:37;9.27;;;5.00;;
64842;SDS011;51310;52.198;5.422;2024-03-22T12:05:04;8.48;;;6.05;;
64842;SDS011;51310;52.198;5.422;2024-03-22T12:07:31;7.40;;;4.68;;
64842;SDS011;51310;52.198;5.422;2024-03-22T12:10:00;14.90;;;5.72;;
64842;SDS011;51310;52.198;5.422;2024-03-22T12:12:26;9.00;;;5.43;;
64842;SDS011;51310;52.198;5.422;2024-03-22T12:14:52;8.25;;;5.10;;
64842;SDS011;51310;52.198;5.422;2024-03-22T12:17:18;10.38;;;5.20;;
64842;SDS011;51310;52.198;5.422;2024-03-22T12:19:44;8.43;;;4.90;;
64842;SDS011;51310;52.198;5.422;2024-03-22T12:22:10;8.18;;;4.97;;
64842;SDS011;51310;52.198;5.422;2024-03-22T12:24:36;10.32;;;5.55;;
64842;SDS011;51310;52.198;5.422;2024-03-22T12:27:03;13.27;;;6.60;;
64842;SDS011;51310;52.198;5.422;2024-03-22T12:29:31;13.48;;;6.75;;
64842;SDS011;51310;52.198;5.422;2024-03-22T12:31:58;12.52;;;7.10;;
64842;SDS011;51310;52.198;5.422;2024-03-22T12:34:26;13.00;;;6.65;;
64842;SDS011;51310;52.198;5.422;2024-03-22T12:36:54;13.40;;;6.50;;
64842;SDS011;51310;52.198;5.422;2024-03-22T12:39:21;12.80;;;7.47;;
64842;SDS011;51310;52.198;5.422;2024-03-22T12:41:47;15.65;;;7.63;;
64842;SDS011;51310;52.198;5.422;2024-03-22T12:44:13;13.55;;;7.50;;
64842;SDS011;51310;52.198;5.422;2024-03-22T12:46:39;13.77;;;7.93;;
64842;SDS011;51310;52.198;5.422;2024-03-22T12:49:07;18.90;;;8.68;;
64842;SDS011;51310;52.198;5.422;2024-03-22T12:51:34;15.80;;;8.80;;
64842;SDS011;51310;52.198;5.422;2024-03-22T12:54:02;18.90;;;8.95;;
64842;SDS011;51310;52.198;5.422;2024-03-22T12:56:29;22.67;;;10.55;;
64842;SDS011;51310;52.198;5.422;2024-03-22T12:58:59;19.63;;;9.50;;
64842;SDS011;51310;52.198;5.422;2024-03-22T13:01:25;24.70;;;9.00;;
64842;SDS011;51310;52.198;5.422;2024-03-22T13:03:51;19.88;;;8.95;;
64842;SDS011;51310;52.198;5.422;2024-03-22T13:06:17;20.90;;;8.70;;
64842;SDS011;51310;52.198;5.422;2024-03-22T13:08:43;20.30;;;9.25;;
64842;SDS011;51310;52.198;5.422;2024-03-22T13:11:09;17.45;;;9.57;;
64842;SDS011;51310;52.198;5.422;2024-03-22T13:13:37;25.67;;;9.75;;
64842;SDS011;51310;52.198;5.422;2024-03-22T13:16:03;23.50;;;9.73;;
64842;SDS011;51310;52.198;5.422;2024-03-22T13:18:30;19.83;;;9.25;;
64842;SDS011;51310;52.198;5.422;2024-03-22T13:20:56;18.65;;;8.80;;
64842;SDS011;51310;52.198;5.422;2024-03-22T13:23:22;22.63;;;10.75;;
64842;SDS011;51310;52.198;5.422;2024-03-22T13:25:48;25.50;;;9.48;;
64842;SDS011;51310;52.198;5.422;2024-03-22T13:28:14;25.60;;;9.95;;
64842;SDS011;51310;52.198;5.422;2024-03-22T13:30:44;18.23;;;9.95;;
64842;SDS011;51310;52.198;5.422;2024-03-22T13:33:10;22.42;;;9.82;;
64842;SDS011;51310;52.198;5.422;2024-03-22T13:35:36;24.58;;;9.40;;
64842;SDS011;51310;52.198;5.422;2024-03-22T13:38:02;17.27;;;9.70;;
64842;SDS011;51310;52.198;5.422;2024-03-22T13:40:28;16.73;;;9.05;;
64842;SDS011;51310;52.198;5.422;2024-03-22T13:42:54;26.23;;;9.93;;
64842;SDS011;51310;52.198;5.422;2024-03-22T13:45:20;15.48;;;8.40;;
64842;SDS011;51310;52.198;5.422;2024-03-22T13:47:46;21.83;;;10.32;;
64842;SDS011;51310;52.198;5.422;2024-03-22T13:50:12;22.42;;;9.90;;
64842;SDS011;51310;52.198;5.422;2024-03-22T13:52:38;21.98;;;10.73;;
64842;SDS011;51310;52.198;5.422;2024-03-22T13:55:04;29.33;;;11.00;;
64842;SDS011;51310;52.198;5.422;2024-03-22T13:57:31;30.63;;;10.27;;
64842;SDS011;51310;52.198;5.422;2024-03-22T13:59:58;17.05;;;11.05;;
64842;SDS011;51310;52.198;5.422;2024-03-22T14:02:24;21.73;;;10.95;;
64842;SDS011;51310;52.198;5.422;2024-03-22T14:04:50;25.60;;;11.27;;
64842;SDS011;51310;52.198;5.422;2024-03-22T14:07:17;30.88;;;10.32;;
64842;SDS011;51310;52.198;5.422;2024-03-22T14:09:43;24.08;;;11.93;;
64842;SDS011;51310;52.198;5.422;2024-03-22T14:12:10;19.85;;;10.15;;
64842;SDS011;51310;52.198;5.422;2024-03-22T14:14:36;25.20;;;10.93;;
64842;SDS011;51310;52.198;5.422;2024-03-22T14:17:02;25.17;;;11.68;;
64842;SDS011;51310;52.198;5.422;2024-03-22T14:19:28;26.00;;;11.13;;
64842;SDS011;51310;52.198;5.422;2024-03-22T14:21:54;24.52;;;11.35;;
64842;SDS011;51310;52.198;5.422;2024-03-22T14:24:20;22.30;;;10.02;;